Flight Track Log - Related Links

Times and Time Zones

All times are in EDT time to prevent confusion due to time zone crossing. See the SWA34 flight status page for this flight to view local times or setup timezone preferences in your user account.

Time Position Orientation Groundspeed Altitude Reporting Facility
EDT Latitude Longitude Course Direction KTS MPH feet Rate Location/Type
Thu 08:58:59 PM 36.1956 -95.8658 84° East 155 178 1,500  Level Kansas City Center
Thu 08:59:41 PM 36.1997 -95.8189 84° East 188 216 2,900 2,049 Climbing Kansas City Center
Thu 09:00:21 PM 36.2122 -95.7819 67° East 202 232 4,300 2,495 Climbing Kansas City Center
Thu 09:01:22 PM 36.2506 -95.7047 58° Northeast 253 291 7,100 2,832 Climbing Kansas City Center
Thu 09:02:26 PM 36.2919 -95.6186 59° Northeast 282 325 10,200 3,024 Climbing Kansas City Center
Thu 09:03:27 PM 36.3497 -95.4983 59° Northeast 331 381 13,400 2,876 Climbing Kansas City Center
Thu 09:04:27 PM 36.3967 -95.4019 59° Northeast 353 406 16,000 2,410 Climbing Kansas City Center
Thu 09:05:29 PM 36.4503 -95.2892 59° Northeast 372 428 18,300 2,246 Climbing Kansas City Center
Thu 09:07:34 PM 36.5681 -95.0383 60° Northeast 413 475 23,000 2,226 Climbing Kansas City Center
Thu 09:08:35 PM 36.6419 -94.8825 59° Northeast 428 493 25,200 2,033 Climbing Kansas City Center
Thu 09:09:35 PM 36.7050 -94.7467 60° Northeast 445 512 27,100 1,742 Climbing Kansas City Center
Thu 09:10:39 PM 36.7725 -94.6122 58° Northeast 454 522 28,800 1,536 Climbing Kansas City Center
Thu 09:11:40 PM 36.8508 -94.4878 52° Northeast 456 525 30,300 1,388 Climbing Kansas City Center
Thu 09:12:40 PM 36.9278 -94.3556 54° Northeast 464 534 31,600 1,289 Climbing Kansas City Center
Thu 09:13:41 PM 37.0069 -94.2203 54° Northeast 477 549 32,900 639 Climbing Kansas City Center
Thu 09:14:42 PM 37.0889 -94.0814 53° Northeast 491 565 32,900  Level Kansas City Center
Thu 09:15:44 PM 37.1850 -93.9211 53° Northeast 493 567 32,900  Level Kansas City Center
Thu 09:16:47 PM 37.2633 -93.7861 54° Northeast 481 554 32,900 48 Level Kansas City Center
Thu 09:17:48 PM 37.3417 -93.6503 54° Northeast 478 550 33,000 49 Climbing Kansas City Center
Thu 09:18:49 PM 37.4219 -93.5117 54° Northeast 485 558 33,000 -49 Level Kansas City Center
Thu 09:19:50 PM 37.5042 -93.3689 54° Northeast 496 571 32,900 -48 Descending Kansas City Center
Thu 09:20:54 PM 37.5864 -93.2253 54° Northeast 501 577 32,900  Level Kansas City Center
Thu 09:21:55 PM 37.6678 -93.0831 54° Northeast 500 575 32,900  Level Kansas City Center
Thu 09:22:57 PM 37.7486 -92.9408 54° Northeast 497 572 32,900  Level Kansas City Center
Thu 09:23:58 PM 37.8264 -92.8022 55° Northeast 485 558 32,900 50 Level Kansas City Center
Thu 09:24:58 PM 37.9064 -92.6581 55° Northeast 494 568 33,000  Climbing Kansas City Center
Thu 09:26:00 PM 37.9861 -92.5178 54° Northeast 494 568 32,900 -48 Descending Kansas City Center
Thu 09:27:02 PM 38.0850 -92.3492 53° Northeast 495 570 32,900 -293 Level Kansas City Center
Thu 09:28:03 PM 38.1614 -92.2036 56° Northeast 497 572 32,300 -816 Descending Kansas City Center
Thu 09:29:07 PM 38.2456 -92.0497 55° Northeast 488 562 31,200 -1,584 Descending Kansas City Center
Thu 09:30:08 PM 38.3217 -91.9111 55° Northeast 479 551 29,000 -2,213 Descending Kansas City Center
Thu 09:31:09 PM 38.3947 -91.7767 55° Northeast 466 536 26,700 -2,000 Descending Kansas City Center
Thu 09:32:11 PM 38.4639 -91.6439 56° Northeast 453 521 24,900 -1,951 Descending Kansas City Center
Thu 09:33:12 PM 38.5306 -91.5150 56° Northeast 439 505 22,700 -2,146 Descending Kansas City Center
Thu 09:34:14 PM 38.5950 -91.3925 56° Northeast 420 483 20,500 -2,244 Descending Kansas City Center
Thu 09:35:15 PM 38.6619 -91.2669 56° Northeast 400 460 18,100 -2,164 Descending Kansas City Center
Thu 09:36:16 PM 38.6958 -91.1386 71° East 393 452 16,100 -2,049 Descending Kansas City Center
Thu 09:37:18 PM 38.6983 -91.0036 89° East 384 442 13,900 -2,049 Descending Kansas City Center
Thu 09:38:19 PM 38.7019 -90.8722 88° East 375 432 11,900 -1,742 Descending Kansas City Center
Thu 09:39:22 PM 38.7050 -90.7450 88° East 363 418 10,300 -1,220 Descending Kansas City Center
Thu 09:40:22 PM 38.7097 -90.6358 87° East 317 365 9,400 -1,131 Descending Kansas City Center
Thu 09:41:24 PM 38.7131 -90.5333 88° East 293 337 8,000 -1,104 Descending Kansas City Center
Thu 09:42:27 PM 38.6678 -90.4317 120° Southeast 281 323 7,100 -919 Descending Kansas City Center
Thu 09:43:28 PM 38.6317 -90.3606 123° Southeast 265 305 6,100 -1,230 Descending Kansas City Center
Thu 09:44:29 PM 38.6344 -90.2883 87° East 238 274 4,600 -1,438 Descending Kansas City Center
Thu 09:45:29 PM 38.6778 -90.2544 31° Northeast 206 237 3,200 -1,500 Descending Kansas City Center
Thu 09:46:33 PM 38.7156 -90.2914 323° Northwest 176 203 1,500 -1,210 Descending Kansas City Center
Thu 09:47:33 PM 38.7369 -90.3367 301° West 161 185 700 -446 Descending Kansas City Center
Thu 09:48:34 PM 38.7586 -90.3806 302° West 159 183 600 -98 Descending Kansas City Center

Login

Don't have an account? Register now (free) for customized features, flight alerts, and more!